메인 페이지
METAR-TAF:

METAR-TAF

공항 :

아우랑가바드, 인도

위도: 19-51-46N, 경도: 75-23-53E, 고도: 582m

현재 날씨관측

예보는 2 시간 18분 전, 18:00시(UTC)에 발표되었습니다.
무풍
온도 21°C
습도 83%
기압 1017 hPa
시정: 4000m
연무

METAR: VAAU 301800Z 00000KT 4000 HZ NSC 21/18 Q1017 NOSIG

시각: 01:48 (20:18 UTC)

예보

예보는 9 시간 18분 전, 11:00시(UTC)에 발표되었습니다.
예보 대상 시간: 30일 12시부터 30일 21시까지 (UTC)
북동5kt
시정: 4000m
고도 2000ft 상공 구름 조금
고도 10000ft 상공 구름 보통
연무
전환 중
30일 18시부터 30일 20시까지 (UTC)
kt
시정: 3000m
고도 10000ft 상공 구름 조금
연무

TAF: VAAU 301100Z 3012/3021 05005KT 4000 HZ FEW020 SCT100 BECMG 3018/3020 00000KT 3000 HZ FEW100

4,000개 이상의 공항 관측 자료 및 예보 (METAR 및 TAF 보고).

지도상에서 검색 가능한 기상관측소가 노란 점과 빨간 점으로 표시되어 있습니다.

기상관측소 명을 보려면 표시 위로 마우스를 이동하세요.

날씨 관측과 예보를 보려면 클릭하세요.

지도 변경 : 확대하려면 엑스 표시가 있는 녹색 버튼, 축소하려면 빼기 표시가 있는 녹색 버튼, 다음 페이지의 지도를 보려면 녹색 화살표를 클릭하세요.


METAR-TAF: